createdAt,value
2023-04-20T00:01:42.401Z,74.95
2023-04-20T00:03:59.515Z,74.90
2023-04-20T00:06:17.180Z,75.13
2023-04-20T00:08:34.116Z,75.33
2023-04-20T00:10:51.419Z,75.07
2023-04-20T00:13:09.479Z,75.03
2023-04-20T00:15:26.799Z,75.42
2023-04-20T00:17:43.949Z,75.32
2023-04-20T00:20:01.569Z,75.61
2023-04-20T00:22:18.566Z,75.77
2023-04-20T00:24:36.790Z,75.45
2023-04-20T00:26:53.907Z,75.63
2023-04-20T00:29:11.384Z,75.81
2023-04-20T00:31:29.743Z,76.01
2023-04-20T00:33:46.821Z,75.55
2023-04-20T00:36:03.952Z,76.21
2023-04-20T00:38:21.010Z,76.48
2023-04-20T00:40:38.036Z,76.46
2023-04-20T00:42:55.313Z,76.52
2023-04-20T00:45:13.607Z,76.49
2023-04-20T00:47:30.716Z,76.60
2023-04-20T00:49:47.665Z,76.25
2023-04-20T00:52:04.645Z,76.32
2023-04-20T00:54:21.995Z,76.84
2023-04-20T00:56:39.205Z,76.39
2023-04-20T00:58:56.473Z,76.10
2023-04-20T01:01:13.793Z,76.33
2023-04-20T01:03:31.990Z,76.20
2023-04-20T01:05:49.312Z,76.38
2023-04-20T01:08:06.354Z,76.36
2023-04-20T01:10:24.421Z,76.68
2023-04-20T01:12:41.540Z,77.52
2023-04-20T01:15:00.801Z,77.03
2023-04-20T01:17:18.099Z,77.47
2023-04-20T01:19:35.385Z,77.23
2023-04-20T01:21:52.458Z,76.97
2023-04-20T01:24:09.477Z,77.25
2023-04-20T01:26:26.733Z,76.75
2023-04-20T01:28:44.081Z,76.46
2023-04-20T01:31:01.098Z,77.28
2023-04-20T01:33:18.360Z,77.38
2023-04-20T01:35:35.428Z,77.10
2023-04-20T01:37:52.757Z,76.99
2023-04-20T01:40:10.059Z,76.80
2023-04-20T01:42:27.119Z,77.32
2023-04-20T01:44:44.301Z,77.09
2023-04-20T01:47:01.518Z,76.95
2023-04-20T01:49:19.820Z,76.86
2023-04-20T01:51:37.917Z,77.14
2023-04-20T01:53:54.999Z,77.24
2023-04-20T01:56:12.046Z,77.45
2023-04-20T01:58:30.062Z,77.46
2023-04-20T02:00:47.005Z,77.89
2023-04-20T02:03:05.530Z,78.21
2023-04-20T02:05:22.642Z,78.59
2023-04-20T02:07:39.970Z,78.34
2023-04-20T02:09:57.060Z,77.93
2023-04-20T02:12:14.186Z,77.41
2023-04-20T02:14:31.323Z,77.56
2023-04-20T02:16:48.718Z,77.62
2023-04-20T02:19:07.049Z,77.64
2023-04-20T02:21:24.328Z,77.76
2023-04-20T02:23:41.600Z,77.40
2023-04-20T02:25:59.664Z,77.27
2023-04-20T02:28:16.711Z,77.73
2023-04-20T02:30:33.955Z,77.28
2023-04-20T02:32:51.255Z,77.68
2023-04-20T02:35:08.596Z,78.29
2023-04-20T02:37:25.623Z,78.24
2023-04-20T02:39:42.637Z,78.55
2023-04-20T02:42:00.717Z,78.56
2023-04-20T02:44:18.741Z,78.33
2023-04-20T02:46:36.343Z,78.60
2023-04-20T02:48:53.398Z,78.78
2023-04-20T02:51:10.448Z,78.59
2023-04-20T02:53:27.586Z,78.97
2023-04-20T02:55:44.625Z,79.28
2023-04-20T02:58:01.698Z,79.13
2023-04-20T03:00:18.964Z,78.81
2023-04-20T03:02:36.125Z,79.54
2023-04-20T03:04:53.670Z,79.15
2023-04-20T03:07:10.756Z,78.74
2023-04-20T03:09:27.978Z,78.96
2023-04-20T03:11:45.316Z,78.98
2023-04-20T03:14:02.271Z,78.73
2023-04-20T03:16:20.698Z,78.78
2023-04-20T03:18:37.729Z,78.96
2023-04-20T03:20:55.692Z,79.00
2023-04-20T03:23:13.107Z,79.10
2023-04-20T03:25:30.121Z,79.00
2023-04-20T03:27:47.160Z,78.79
2023-04-20T03:30:04.215Z,79.87
2023-04-20T03:32:21.530Z,79.35
2023-04-20T03:34:38.572Z,79.88
2023-04-20T03:36:55.802Z,79.75
2023-04-20T03:39:12.875Z,79.25
2023-04-20T03:41:29.870Z,79.16
2023-04-20T03:43:47.870Z,79.43
2023-04-20T03:46:05.241Z,79.43
2023-04-20T03:48:22.361Z,79.28
2023-04-20T03:50:39.331Z,79.56
2023-04-20T03:52:56.698Z,79.84
2023-04-20T03:55:13.774Z,80.03
2023-04-20T03:57:30.796Z,80.41
2023-04-20T03:59:48.016Z,80.19
2023-04-20T04:02:04.946Z,79.85
2023-04-20T04:04:22.247Z,80.00
2023-04-20T04:06:39.724Z,79.70
2023-04-20T04:08:57.030Z,79.73
2023-04-20T04:11:14.013Z,79.74
2023-04-20T04:13:34.347Z,79.67
2023-04-20T04:15:51.640Z,80.07
2023-04-20T04:18:09.021Z,79.61
2023-04-20T04:20:26.286Z,79.65
2023-04-20T04:22:43.346Z,79.88
2023-04-20T04:25:00.276Z,79.81
2023-04-20T04:27:17.538Z,79.73
2023-04-20T04:29:34.542Z,80.14
2023-04-20T04:31:51.737Z,79.91
2023-04-20T04:34:08.945Z,79.82
2023-04-20T04:36:26.161Z,80.16
2023-04-20T04:38:43.195Z,80.20
2023-04-20T04:41:00.167Z,79.88
2023-04-20T04:43:17.463Z,79.76
2023-04-20T04:45:34.426Z,79.68
2023-04-20T04:47:51.364Z,79.53
2023-04-20T04:50:08.617Z,79.42
2023-04-20T04:52:25.919Z,78.91
2023-04-20T04:54:42.978Z,78.79
2023-04-20T04:56:59.974Z,79.19
2023-04-20T04:59:18.334Z,78.78
2023-04-20T05:01:35.492Z,78.56
2023-04-20T05:03:52.649Z,78.10
2023-04-20T05:06:09.821Z,78.64
2023-04-20T05:08:27.054Z,78.36
2023-04-20T05:10:44.908Z,78.18
2023-04-20T05:13:01.925Z,78.20
2023-04-20T05:15:19.939Z,77.87
2023-04-20T05:17:36.935Z,77.62
2023-04-20T05:19:55.291Z,77.80
2023-04-20T05:22:12.290Z,77.58
2023-04-20T05:24:29.212Z,77.71
2023-04-20T05:26:46.462Z,76.90
2023-04-20T05:29:04.731Z,77.19
2023-04-20T05:31:22.084Z,76.50
2023-04-20T05:33:39.152Z,76.22
2023-04-20T05:35:56.146Z,77.68
2023-04-20T05:38:14.238Z,77.72
2023-04-20T05:40:31.505Z,76.92
2023-04-20T05:42:48.523Z,77.03
2023-04-20T05:45:05.555Z,77.82
2023-04-20T05:47:22.534Z,77.05
2023-04-20T05:49:39.560Z,76.63
2023-04-20T05:51:56.548Z,76.67
2023-04-20T05:54:13.891Z,76.27
2023-04-20T05:56:31.215Z,76.10
2023-04-20T05:58:48.138Z,76.17
2023-04-20T06:01:05.082Z,75.56
2023-04-20T06:03:22.181Z,75.27
2023-04-20T06:05:40.417Z,75.57
2023-04-20T06:07:57.450Z,75.63
2023-04-20T06:10:15.340Z,77.03
2023-04-20T06:12:32.401Z,75.79
2023-04-20T06:14:49.417Z,75.71
2023-04-20T06:17:06.465Z,76.24
2023-04-20T06:19:23.378Z,75.63
2023-04-20T06:21:40.393Z,75.90
2023-04-20T06:23:57.435Z,76.57
2023-04-20T06:26:14.678Z,76.38
2023-04-20T06:28:31.664Z,75.57
2023-04-20T06:30:48.561Z,76.37
2023-04-20T06:33:05.869Z,75.27
2023-04-20T06:35:23.159Z,73.99
2023-04-20T06:37:40.481Z,74.95
2023-04-20T06:39:57.689Z,74.63
2023-04-20T06:42:14.732Z,74.61
2023-04-20T06:44:31.738Z,74.82
2023-04-20T06:46:48.789Z,75.27
2023-04-20T06:49:06.074Z,75.00
2023-04-20T06:51:22.994Z,74.52
2023-04-20T06:53:40.008Z,74.20
2023-04-20T06:55:57.106Z,73.55
2023-04-20T06:58:14.162Z,75.31
2023-04-20T07:00:31.302Z,73.95
2023-04-20T07:02:48.454Z,74.46
2023-04-20T07:05:05.568Z,73.74
2023-04-20T07:07:22.576Z,74.74
2023-04-20T07:09:39.837Z,73.56
2023-04-20T07:11:57.116Z,73.64
2023-04-20T07:14:15.081Z,73.16
2023-04-20T07:16:32.459Z,73.24
2023-04-20T07:18:51.022Z,72.88
2023-04-20T07:21:08.381Z,72.89
2023-04-20T07:23:26.546Z,73.00
2023-04-20T07:25:43.581Z,72.60
2023-04-20T07:28:00.906Z,72.59
2023-04-20T07:30:17.821Z,73.21
2023-04-20T07:32:36.251Z,73.64
2023-04-20T07:34:53.225Z,73.44
2023-04-20T07:37:10.339Z,73.94
2023-04-20T07:39:27.423Z,72.38
2023-04-20T07:41:44.446Z,73.78
2023-04-20T07:44:01.745Z,73.59
2023-04-20T07:46:19.335Z,72.68
2023-04-20T07:48:36.631Z,72.66
2023-04-20T07:50:53.668Z,71.96
2023-04-20T07:53:10.704Z,72.22
2023-04-20T07:55:27.995Z,72.06
2023-04-20T07:57:44.982Z,72.79
2023-04-20T08:00:02.070Z,73.32
2023-04-20T08:02:20.187Z,72.08
2023-04-20T08:04:37.817Z,73.25
2023-04-20T08:06:55.371Z,72.84
2023-04-20T08:09:13.482Z,72.87
2023-04-20T08:11:30.529Z,72.92
2023-04-20T08:13:47.599Z,73.17
2023-04-20T08:16:04.735Z,73.01
2023-04-20T08:18:21.752Z,72.47
2023-04-20T08:20:39.067Z,73.27
2023-04-20T08:22:56.010Z,73.44
2023-04-20T08:25:14.063Z,75.26
2023-04-20T08:27:31.377Z,74.85
2023-04-20T08:29:48.396Z,73.60
2023-04-20T08:32:05.709Z,74.56
2023-04-20T08:34:22.947Z,74.38
2023-04-20T08:36:41.008Z,75.70
2023-04-20T08:38:58.071Z,76.62
2023-04-20T08:41:15.321Z,75.44
2023-04-20T08:43:32.343Z,75.28
2023-04-20T08:45:49.323Z,74.52
2023-04-20T08:48:07.428Z,75.33
2023-04-20T08:50:24.712Z,75.44
2023-04-20T08:52:41.777Z,74.46
2023-04-20T08:54:59.098Z,73.09
2023-04-20T08:57:16.131Z,72.30
2023-04-20T08:59:33.473Z,74.92
2023-04-20T09:01:50.515Z,74.17
2023-04-20T09:04:07.799Z,73.65
2023-04-20T09:06:24.947Z,73.19
2023-04-20T09:08:42.210Z,72.81
2023-04-20T09:11:00.253Z,74.03
2023-04-20T09:13:17.277Z,74.66
2023-04-20T09:15:34.326Z,74.13
2023-04-20T09:17:51.650Z,74.55
2023-04-20T09:20:08.665Z,73.96
2023-04-20T09:22:25.589Z,74.67
2023-04-20T09:24:42.621Z,73.69
2023-04-20T09:26:59.878Z,73.71
2023-04-20T09:29:16.890Z,74.27
2023-04-20T09:31:34.098Z,73.43
2023-04-20T09:33:51.123Z,73.15
2023-04-20T09:36:09.531Z,74.58
2023-04-20T09:38:26.548Z,73.13
2023-04-20T09:40:43.609Z,73.45
2023-04-20T09:43:00.610Z,73.08
2023-04-20T09:45:17.506Z,72.75
2023-04-20T09:47:35.509Z,72.91
2023-04-20T09:49:52.543Z,73.23
2023-04-20T09:52:09.766Z,73.30
2023-04-20T09:54:26.860Z,72.13
2023-04-20T09:56:44.067Z,72.25
2023-04-20T09:59:01.372Z,72.32
2023-04-20T10:01:18.713Z,72.62
2023-04-20T10:03:35.871Z,72.95
2023-04-20T10:05:53.587Z,72.75
2023-04-20T10:08:11.582Z,72.82
2023-04-20T10:10:28.553Z,72.81
2023-04-20T10:12:45.821Z,73.20
2023-04-20T10:15:03.094Z,72.10
2023-04-20T10:17:20.252Z,70.79
2023-04-20T10:19:37.305Z,69.57
2023-04-20T10:21:54.620Z,68.75
2023-04-20T10:24:11.685Z,69.22
2023-04-20T10:26:28.598Z,68.75
2023-04-20T10:28:45.837Z,67.64
2023-04-20T10:31:03.112Z,69.04
2023-04-20T10:33:20.365Z,67.08
2023-04-20T10:35:38.567Z,68.11
2023-04-20T10:37:55.864Z,69.49
2023-04-20T10:40:12.825Z,66.59
2023-04-20T10:42:29.835Z,66.74
2023-04-20T10:44:47.166Z,65.51
2023-04-20T10:47:04.176Z,66.21
2023-04-20T10:49:22.633Z,67.35
2023-04-20T10:51:39.643Z,68.11
2023-04-20T10:53:57.840Z,67.40
2023-04-20T10:56:14.871Z,67.30
2023-04-20T10:58:31.798Z,67.24
2023-04-20T11:00:48.799Z,66.02
2023-04-20T11:03:06.124Z,65.86
2023-04-20T11:05:24.290Z,66.36
2023-04-20T11:07:41.430Z,64.79
2023-04-20T11:09:59.651Z,64.59
2023-04-20T11:12:16.687Z,62.65
2023-04-20T11:14:33.698Z,62.31
2023-04-20T11:16:51.878Z,63.49
2023-04-20T11:19:09.189Z,62.59
2023-04-20T11:21:26.497Z,61.69
2023-04-20T11:23:43.768Z,61.37
2023-04-20T11:26:00.796Z,61.12
2023-04-20T11:28:18.700Z,61.15
2023-04-20T11:30:35.673Z,61.39
2023-04-20T11:32:53.032Z,60.85
2023-04-20T11:35:10.220Z,61.24
2023-04-20T11:37:27.289Z,60.54
2023-04-20T11:39:45.468Z,61.48
2023-04-20T11:42:02.366Z,62.29
2023-04-20T11:44:19.885Z,59.40
2023-04-20T11:46:36.853Z,59.25
2023-04-20T11:48:54.062Z,59.35
2023-04-20T11:51:11.141Z,60.15
2023-04-20T11:53:28.090Z,58.67
2023-04-20T11:55:44.934Z,57.92
2023-04-20T11:58:01.844Z,58.95
2023-04-20T12:00:19.706Z,58.37
2023-04-20T12:02:37.194Z,58.16
2023-04-20T12:04:54.702Z,56.90
2023-04-20T12:07:11.634Z,57.92
2023-04-20T12:09:28.665Z,56.81
2023-04-20T12:11:45.961Z,56.32
2023-04-20T12:14:03.944Z,57.22
2023-04-20T12:16:21.316Z,56.12
2023-04-20T12:18:38.623Z,58.02
2023-04-20T12:20:55.873Z,57.47
2023-04-20T12:23:12.917Z,54.96
2023-04-20T12:25:30.181Z,54.21
2023-04-20T12:27:48.223Z,54.70
2023-04-20T12:30:06.949Z,52.53
2023-04-20T12:32:23.918Z,51.71
2023-04-20T12:34:41.136Z,51.43
2023-04-20T12:36:59.157Z,49.78
2023-04-20T12:39:16.212Z,51.31
2023-04-20T12:41:33.392Z,50.93
2023-04-20T12:43:50.687Z,49.69
2023-04-20T12:46:07.722Z,50.67
2023-04-20T12:48:24.638Z,50.98
2023-04-20T12:50:41.548Z,53.53
2023-04-20T12:52:58.890Z,49.80
2023-04-20T12:55:15.985Z,51.57
2023-04-20T12:57:33.285Z,47.29
2023-04-20T12:59:50.331Z,47.24
2023-04-20T13:02:07.303Z,47.81
2023-04-20T13:04:24.863Z,47.97
2023-04-20T13:06:42.216Z,47.11
2023-04-20T13:08:59.528Z,47.84
2023-04-20T13:11:16.560Z,49.59
2023-04-20T13:13:33.545Z,47.90
2023-04-20T13:15:50.852Z,48.46
2023-04-20T13:18:09.062Z,51.20
2023-04-20T13:20:26.005Z,52.11
2023-04-20T13:22:54.459Z,52.18
2023-04-20T13:25:14.214Z,50.37
2023-04-20T13:27:31.472Z,49.17
2023-04-20T13:29:48.746Z,50.52
2023-04-20T13:32:05.790Z,51.95
2023-04-20T13:34:23.123Z,52.01
2023-04-20T13:36:40.114Z,51.58
2023-04-20T13:38:58.089Z,52.33
2023-04-20T13:41:15.177Z,54.19
2023-04-20T13:43:32.219Z,55.86
2023-04-20T13:45:49.528Z,58.31
2023-04-20T13:48:06.616Z,60.23
2023-04-20T13:50:23.857Z,61.26
2023-04-20T13:52:41.200Z,62.16
2023-04-20T13:54:58.488Z,63.62
2023-04-20T13:57:15.493Z,63.35
2023-04-20T13:59:32.551Z,64.68
2023-04-20T14:01:49.649Z,63.35
2023-04-20T14:04:08.098Z,62.78
2023-04-20T14:06:25.319Z,62.01
2023-04-20T14:08:42.583Z,59.89
2023-04-20T14:10:59.600Z,58.96
2023-04-20T14:13:16.631Z,57.94
2023-04-20T14:15:33.666Z,57.10
2023-04-20T14:17:52.451Z,56.54
2023-04-20T14:20:10.240Z,55.66
2023-04-20T14:22:27.476Z,55.43
2023-04-20T14:24:44.768Z,54.78
2023-04-20T14:27:01.723Z,55.50
2023-04-20T14:29:19.016Z,56.33
2023-04-20T14:31:36.272Z,56.18
2023-04-20T14:33:53.352Z,56.61
2023-04-20T14:36:10.408Z,56.39
2023-04-20T14:38:27.647Z,55.82
2023-04-20T14:40:45.867Z,56.25
2023-04-20T14:43:02.919Z,56.26
2023-04-20T14:45:20.199Z,56.17
2023-04-20T14:47:37.323Z,56.01
2023-04-20T14:49:54.331Z,56.28
2023-04-20T14:52:11.610Z,56.86
2023-04-20T14:54:28.588Z,57.71
2023-04-20T14:56:46.913Z,57.67
2023-04-20T14:59:04.013Z,58.41
2023-04-20T15:01:21.093Z,57.35
2023-04-20T15:03:38.485Z,58.64
2023-04-20T15:05:56.086Z,59.17
2023-04-20T15:08:14.307Z,59.62
2023-04-20T15:10:31.327Z,60.08
2023-04-20T15:12:49.337Z,60.17
2023-04-20T15:15:06.721Z,61.04
2023-04-20T15:17:23.851Z,62.38
2023-04-20T15:19:40.864Z,63.59
2023-04-20T15:21:58.056Z,67.35
2023-04-20T15:24:15.087Z,68.36
2023-04-20T15:26:32.013Z,72.04
2023-04-20T15:28:49.361Z,71.53
2023-04-20T15:31:06.724Z,73.78
2023-04-20T15:33:27.140Z,75.18
2023-04-20T15:35:45.121Z,73.79
2023-04-20T15:38:02.011Z,74.46
2023-04-20T15:40:19.265Z,74.58
2023-04-20T15:42:37.274Z,76.53
2023-04-20T15:44:54.624Z,77.84
2023-04-20T15:47:11.679Z,79.21
2023-04-20T15:49:28.577Z,79.12
2023-04-20T15:51:45.648Z,77.80
2023-04-20T15:54:02.670Z,79.15
2023-04-20T15:56:19.709Z,80.33
2023-04-20T15:58:36.747Z,79.99
2023-04-20T16:00:53.873Z,79.66
2023-04-20T16:03:11.331Z,78.53
2023-04-20T16:05:28.382Z,79.38
2023-04-20T16:07:46.403Z,78.75
2023-04-20T16:10:03.539Z,79.33
2023-04-20T16:12:21.569Z,78.28
2023-04-20T16:14:38.584Z,79.84
2023-04-20T16:16:56.751Z,78.09
2023-04-20T16:19:13.866Z,79.54
2023-04-20T16:21:30.891Z,79.38
2023-04-20T16:23:47.905Z,79.33
2023-04-20T16:26:05.069Z,79.46
2023-04-20T16:28:21.998Z,78.43
2023-04-20T16:30:39.215Z,79.36
2023-04-20T16:32:56.298Z,78.66
2023-04-20T16:35:13.378Z,80.30
2023-04-20T16:37:30.436Z,79.61
2023-04-20T16:39:47.643Z,81.78
2023-04-20T16:42:04.603Z,80.53
2023-04-20T16:44:21.584Z,79.81
2023-04-20T16:46:38.969Z,80.26
2023-04-20T16:48:56.282Z,79.45
2023-04-20T16:51:13.281Z,80.87
2023-04-20T16:53:30.275Z,81.29
2023-04-20T16:55:47.352Z,82.28
2023-04-20T16:58:04.385Z,82.70
2023-04-20T17:00:21.499Z,82.13
2023-04-20T17:02:38.904Z,82.53
2023-04-20T17:04:56.341Z,83.72
2023-04-20T17:07:13.390Z,83.89
2023-04-20T17:09:30.386Z,84.30
2023-04-20T17:11:47.682Z,83.73
2023-04-20T17:14:04.729Z,82.66
2023-04-20T17:16:21.862Z,84.30
2023-04-20T17:18:41.712Z,84.41
2023-04-20T17:20:59.005Z,85.27
2023-04-20T17:23:16.118Z,85.25
2023-04-20T17:25:33.156Z,85.11
2023-04-20T17:27:50.226Z,85.32
2023-04-20T17:30:07.518Z,84.45
2023-04-20T17:32:24.840Z,85.12
2023-04-20T17:34:43.133Z,84.56
2023-04-20T17:37:00.132Z,85.25
2023-04-20T17:39:17.319Z,85.24
2023-04-20T17:41:34.380Z,86.85
2023-04-20T17:43:51.600Z,86.97
2023-04-20T17:46:08.846Z,87.11
2023-04-20T17:48:26.211Z,87.34
2023-04-20T17:50:43.547Z,87.49
2023-04-20T17:53:00.882Z,88.36
2023-04-20T17:55:17.884Z,87.47
2023-04-20T17:57:35.825Z,88.04
2023-04-20T17:59:52.781Z,87.81
2023-04-20T18:02:11.223Z,87.52
2023-04-20T18:04:28.541Z,88.01
2023-04-20T18:06:45.889Z,88.53
2023-04-20T18:09:03.234Z,88.06
2023-04-20T18:11:20.536Z,87.54
2023-04-20T18:13:37.745Z,89.37
2023-04-20T18:15:55.656Z,88.74
2023-04-20T18:18:12.772Z,88.71
2023-04-20T18:20:32.584Z,88.47
2023-04-20T18:22:49.857Z,89.06
2023-04-20T18:25:06.950Z,89.33
2023-04-20T18:27:24.962Z,88.38
2023-04-20T18:29:41.917Z,88.96
2023-04-20T18:31:59.442Z,88.63
2023-04-20T18:34:16.818Z,89.08
2023-04-20T18:36:34.697Z,89.22
2023-04-20T18:38:51.752Z,90.05
2023-04-20T18:41:09.062Z,89.30
2023-04-20T18:43:26.072Z,89.37
2023-04-20T18:45:43.382Z,89.91
2023-04-20T18:48:00.457Z,89.75
2023-04-20T18:50:17.434Z,90.02
2023-04-20T18:52:34.687Z,89.91
2023-04-20T18:54:51.692Z,90.42
2023-04-20T18:57:08.745Z,89.15
2023-04-20T18:59:25.741Z,89.58
2023-04-20T19:01:44.882Z,90.02
2023-04-20T19:04:02.297Z,91.04
2023-04-20T19:06:20.359Z,90.21
2023-04-20T19:08:37.391Z,90.74
2023-04-20T19:10:54.637Z,90.13
2023-04-20T19:13:11.683Z,90.70
2023-04-20T19:15:28.604Z,90.77
2023-04-20T19:17:45.696Z,91.30
2023-04-20T19:20:02.968Z,90.84
2023-04-20T19:22:19.901Z,90.52
2023-04-20T19:24:36.927Z,90.63
2023-04-20T19:26:54.284Z,91.45
2023-04-20T19:29:11.592Z,90.60
2023-04-20T19:31:29.926Z,90.72
2023-04-20T19:33:47.185Z,91.46
2023-04-20T19:36:04.107Z,90.60
2023-04-20T19:38:21.181Z,91.33
2023-04-20T19:40:39.127Z,89.45
2023-04-20T19:42:56.019Z,89.06
2023-04-20T19:45:13.041Z,88.55
2023-04-20T19:47:30.125Z,87.25
2023-04-20T19:49:48.523Z,86.79
2023-04-20T19:52:05.524Z,87.70
2023-04-20T19:54:22.819Z,87.20
2023-04-20T19:56:39.832Z,87.81
2023-04-20T19:58:57.150Z,87.27
2023-04-20T20:01:14.057Z,87.07
2023-04-20T20:03:31.212Z,87.55
2023-04-20T20:05:49.511Z,87.33
2023-04-20T20:08:06.632Z,87.80
2023-04-20T20:10:24.519Z,88.37
2023-04-20T20:12:41.566Z,88.91
2023-04-20T20:14:59.607Z,90.08
2023-04-20T20:17:16.953Z,90.28
2023-04-20T20:19:34.308Z,90.24
2023-04-20T20:21:52.325Z,90.57
2023-04-20T20:24:09.653Z,91.46
2023-04-20T20:26:26.960Z,91.69
2023-04-20T20:28:45.540Z,90.87
2023-04-20T20:31:02.485Z,90.69
2023-04-20T20:33:19.487Z,89.74
2023-04-20T20:35:36.798Z,89.80
2023-04-20T20:37:53.846Z,89.27
2023-04-20T20:40:10.765Z,88.82
2023-04-20T20:42:27.776Z,89.17
2023-04-20T20:44:45.135Z,88.81
2023-04-20T20:47:02.265Z,88.35
2023-04-20T20:49:19.576Z,89.62
2023-04-20T20:51:37.040Z,89.45
2023-04-20T20:53:54.047Z,89.11
2023-04-20T20:56:11.116Z,88.72
2023-04-20T20:58:28.371Z,88.63
2023-04-20T21:00:45.550Z,88.61
2023-04-20T21:03:02.726Z,88.72
2023-04-20T21:05:19.800Z,89.17
2023-04-20T21:07:38.976Z,89.15
2023-04-20T21:09:56.035Z,89.23
2023-04-20T21:12:13.341Z,89.80
2023-04-20T21:14:30.277Z,89.57
2023-04-20T21:16:47.346Z,89.25
2023-04-20T21:19:04.315Z,89.16
2023-04-20T21:21:21.377Z,89.01
2023-04-20T21:23:38.368Z,88.84
2023-04-20T21:25:55.659Z,88.36
2023-04-20T21:28:12.875Z,87.75
2023-04-20T21:30:30.134Z,88.17
2023-04-20T21:32:47.189Z,89.55
2023-04-20T21:35:04.192Z,89.22
2023-04-20T21:37:21.166Z,90.03
2023-04-20T21:39:38.083Z,89.98
2023-04-20T21:41:56.146Z,90.23
2023-04-20T21:44:13.178Z,88.99
2023-04-20T21:46:31.170Z,89.73
2023-04-20T21:48:48.203Z,89.91
2023-04-20T21:51:05.224Z,89.60
2023-04-20T21:53:22.458Z,89.64
2023-04-20T21:55:39.492Z,89.33
2023-04-20T21:57:56.420Z,89.14
2023-04-20T22:00:13.660Z,90.54
2023-04-20T22:02:30.715Z,90.39
2023-04-20T22:04:48.089Z,90.88
2023-04-20T22:07:05.338Z,90.79
2023-04-20T22:09:22.328Z,90.33
2023-04-20T22:11:40.267Z,89.21
2023-04-20T22:13:58.527Z,90.01
2023-04-20T22:16:15.588Z,89.22
2023-04-20T22:18:32.654Z,90.87
2023-04-20T22:20:49.669Z,90.74
2023-04-20T22:23:06.648Z,90.54
2023-04-20T22:25:23.943Z,90.58
2023-04-20T22:27:41.817Z,91.14
2023-04-20T22:29:58.833Z,90.20
2023-04-20T22:32:15.869Z,90.33
2023-04-20T22:34:33.170Z,89.80
2023-04-20T22:36:51.128Z,89.71
2023-04-20T22:39:08.387Z,90.54
2023-04-20T22:41:25.628Z,90.66
2023-04-20T22:43:42.867Z,90.88
2023-04-20T22:46:02.285Z,90.25
2023-04-20T22:48:19.307Z,90.53
2023-04-20T22:50:37.580Z,90.57
2023-04-20T22:52:54.512Z,90.44
2023-04-20T22:55:11.758Z,92.05
2023-04-20T22:57:29.023Z,91.69
2023-04-20T22:59:46.865Z,91.58
2023-04-20T23:02:05.984Z,90.93
2023-04-20T23:04:25.273Z,91.39
2023-04-20T23:06:42.364Z,92.11
2023-04-20T23:09:00.259Z,91.52
2023-04-20T23:11:17.246Z,90.96
2023-04-20T23:13:34.309Z,92.20
2023-04-20T23:15:51.305Z,92.14
2023-04-20T23:18:09.389Z,91.61
2023-04-20T23:20:26.725Z,91.85
2023-04-20T23:22:43.753Z,92.28
2023-04-20T23:25:00.884Z,92.78
2023-04-20T23:27:17.906Z,91.50
2023-04-20T23:29:34.971Z,90.99
2023-04-20T23:31:52.197Z,92.26
2023-04-20T23:34:09.495Z,91.70
2023-04-20T23:36:26.746Z,92.60
2023-04-20T23:38:43.869Z,91.53
2023-04-20T23:41:01.193Z,92.06
2023-04-20T23:43:18.093Z,90.61
2023-04-20T23:45:35.993Z,90.62
2023-04-20T23:47:53.076Z,90.86
2023-04-20T23:50:10.388Z,89.82
2023-04-20T23:52:28.752Z,90.54
2023-04-20T23:54:46.026Z,89.66
2023-04-20T23:57:03.124Z,91.37
2023-04-20T23:59:20.479Z,90.85
